Photo de Laille
Rennes
Orage à proximité, Orageux
Metar : 2017/05/28 20:00 LFRN 282000Z AUTO 30014KT 260V330 9999 VCTS FEW016/// BKN088/// BKN100/// ///CB 21/18 Q1012 TEMPO VRB15G30KT 2000 TSRAGR
Couverture nuageuse : Few Clouds 1600 ft Mostly Cloudy 8800 ft Mostly Cloudy 10000 ft
Pression de 29.88 inHg (1012 hPa)
Humidité : 83%
Température : 70°F (21°C)
Vent de WNW at 16 mph (26 km/h)
Visibilité : 6 miles (10 km)
Nantes
Ciel dégagé
Metar : 2017/05/28 20:00 LFRS 282000Z AUTO 28007KT CAVOK 21/16 Q1013 TEMPO VRB15G30KT 3000 TSRA SCT030 BKN060CB
Couverture nuageuse :
Traduc : Partly cloudy 700 ft
Pression de 29.91 inHg (1013 hPa)
Humidité : 73%
Température : 70°F (21°C)
Point de rosée : 61°F (16°C)
Vent de W at 8 mph (13 km/h)
Visibilité : greater than 7 miles (10 km)
Lannion
Pluie, Orage à proximité, Orageux
Metar : 2017/05/28 20:00 LFRO 282000Z AUTO VRB03KT 9000 RA VCTS SCT043/// BKN054/// BKN066/// ///CB 18/17 Q1013 BECMG NSW BKN014
Couverture nuageuse : Partly Cloudy 4300 ft Mostly Cloudy 5400 ft Mostly Cloudy 6600 ft
Traduc : Partly cloudy 700 ft
Pression de 29.91 inHg (1013 hPa)
Humidité : 94%
Température : 64°F (18°C)
Point de rosée : 63°F (17°C)
Vent de varies at 3 mph (6 km/h)
Visibilité : 6 miles (9 km)
Dinard

Metar : 2017/05/28 20:00 LFRD 282000Z AUTO 25018KT 210V280 1100 0500 R35L/0800U +TSRA BCFG SCT003/// BKN009/// BKN024/// ///CB 18/17 Q1015 TEMPO VRB15G30KT 2000 TSRAGR BKN012 BKN050CB
Couverture nuageuse :
Traduc : Partly cloudy 700 ft
Pression de
Humidité :
Température :
Point de rosée :
Vent de WSW at 21 mph (33 km/h)
Visibilité : 1 mile (1 km)
Brest
Orageux
Metar : 2017/05/28 20:00 LFRB 282000Z AUTO VRB03KT 6000 FEW006/// BKN036/// OVC060/// ///TCU 19/18 Q1013 TEMPO 2000 TSRA BR SCT011 BKN020CB
Couverture nuageuse : Few Clouds 600 ft Mostly Cloudy 3600 ft Overcast 6000 ft
Traduc : Partly cloudy 700 ft
Pression de 29.91 inHg (1013 hPa)
Humidité : 94%
Température : 66°F (19°C)
Point de rosée : 64°F (18°C)
Vent de varies at 3 mph (6 km/h)
Visibilité : 4 miles (6 km)
Quimper
nuageux
Metar : 2017/05/28 20:00 LFRQ 282000Z AUTO 35005KT 9999 BKN023 BKN029 19/18 Q1012 TEMPO 3000 -RA BR BKN015CB
Couverture nuageuse : Mostly Cloudy 2300 ft Mostly Cloudy 2900 ft
Traduc : Partly cloudy 700 ft
Pression de 29.88 inHg (1012 hPa)
Humidité : 94%
Température : 66°F (19°C)
Point de rosée : 64°F (18°C)
Vent de N at 6 mph (9 km/h)
Visibilité : 6 miles (10 km)
St Nazaire
Ciel dégagé
Metar : 2017/05/28 20:00 LFRZ 282000Z AUTO 15006KT CAVOK 18/17 Q1013 NOSIG
Couverture nuageuse :
Traduc : Partly cloudy 700 ft
Pression de 29.91 inHg (1013 hPa)
Humidité : 94%
Température : 64°F (18°C)
Point de rosée : 63°F (17°C)
Vent de SSE at 7 mph (11 km/h)
Visibilité : greater than 7 miles (10 km)
St Brieuc
pluie légère, Orageux
Metar : 2017/05/28 20:00 LFRT 282000Z AUTO VRB02KT 6000 -RA BKN006/// BKN035/// BKN046/// ///CB 17/17 Q1013
Couverture nuageuse : Mostly Cloudy 600 ft Mostly Cloudy 3500 ft Mostly Cloudy 4600 ft
Traduc : Partly cloudy 700 ft
Pression de 29.91 inHg (1013 hPa)
Humidité : 100%
Température : 63°F (17°C)
Point de rosée : 63°F (17°C)
Vent de varies at 2 mph (4 km/h)
Visibilité : 4 miles (6 km)
Lorient
Ciel dégagé
Metar : 2017/05/28 20:00 LFRH 282000Z AUTO 18006KT CAVOK 18/17 Q1012 TEMPO 25010G20KT 2000 TSRA SCT010TCU BKN070CB
Couverture nuageuse :
Traduc : Partly cloudy 700 ft
Pression de 29.88 inHg (1012 hPa)
Humidité : 94%
Température : 64°F (18°C)
Point de rosée : 63°F (17°C)
Vent de S at 7 mph (11 km/h)
Visibilité : greater than 7 miles (10 km)
Vannes-Meucon
Orageux
Metar : 2017/05/28 20:00 LFRV 282000Z AUTO VRB08G18KT 9999 ///TCU 18/17 Q1012
Couverture nuageuse :
Traduc : Partly cloudy 700 ft
Pression de 29.88 inHg (1012 hPa)
Humidité : 94%
Température : 64°F (18°C)
Point de rosée : 63°F (17°C)
Vent de varies at 9 mph (15 km/h), gusting to 21 mph (33 km/h)
Visibilité : 6 miles (10 km)

 


   Weather Underground PWS IBRETAGN39      Weather Underground PWS IBRETAGN39Retour Météo-Laillé adhérent de Météo-Bretagne et d'Infoclimat. Données mises à jour en temps réel via Météolink Climatologie réalisée sous Wswin et GraphWeather.

Affichage prévisions météo de WeatherUnderground via script PHP de Saratoga.

Copyright 2012-2017